Clarkston, Michigan
Current Conditions -  °F | °C
As of 9:53 PM on Saturday 22 Nov 2014 (Local Time) from KPTK Reporting Station
Light Fog Light Fog  
Wind Chill: 42°   Ceiling: 1800
Heat Index: 47°   Visibility: 7mi
Dew Point: 42°   Wind: 10mph
Humidity: 83%   Direction: 220°SW
Pressure: 29.92"   Gusts: NA
Location:  42.74°N, 83.42°W
Report Text: KPTK 230253Z 22009KT 7SM MIFG OVC018 08/06 A2992 RMK AO2 RAB03E13 SLP137 P0000 60000 T00830056 57001
Loading
Personal Weather Stations






























Interactive Weather Map New forecast layout! Learn more

10-Day Weather Forecast

Advertisements
Track Severe Weather on mobile